Time;durP1;ratioP1;P1;durP2;ratioP2;P2;SDS_P1;SDS_P2;PMS_P1;PMS_P2;Temp;Humidity;BMP_temperature;BMP_pressure;BME280_temperature;BME280_humidity;BME280_pressure;Samples;Min_cycle;Max_cycle;Signal;HPM_P1;HPM_P2
2022/08/11 00:00:10;;;;;;;3.10;2.78;;;17.20;99.90;;;;;;4978583;28;20495;-73
2022/08/11 00:02:49;;;;;;;2.40;2.20;;;17.10;99.90;;;;;;4981769;28;20065;-69
2022/08/11 00:05:20;;;;;;;3.58;2.63;;;17.10;99.90;;;;;;4977052;28;20533;-69
2022/08/11 00:07:48;;;;;;;;;;;17.00;99.90;;;;;;4997023;28;20056;-68
2022/08/11 00:10:19;;;;;;;5.57;2.58;;;17.00;99.90;;;;;;4999599;28;19926;-72
2022/08/11 00:12:55;;;;;;;4.10;2.80;;;17.00;99.90;;;;;;4997313;28;20045;-70
2022/08/11 00:15:35;;;;;;;4.47;2.35;;;16.90;99.90;;;;;;4997411;28;20448;-70
2022/08/11 00:18:03;;;;;;;2.50;2.30;;;16.90;99.90;;;;;;4998415;28;20133;-72
2022/08/11 00:20:33;;;;;;;4.47;3.00;;;16.80;99.90;;;;;;4999405;28;20053;-68
2022/08/11 00:23:12;;;;;;;3.60;3.30;;;16.80;99.90;;;;;;4996616;28;20053;-72
2022/08/11 00:25:53;;;;;;;3.53;2.88;;;16.80;99.90;;;;;;4995635;28;20137;-71
2022/08/11 00:28:32;;;;;;;4.40;3.10;;;16.90;99.90;;;;;;4998574;28;20120;-71
2022/08/11 00:31:03;;;;;;;4.70;3.10;;;16.80;99.90;;;;;;4996968;28;21175;-75
2022/08/11 00:33:42;;;;;;;3.45;3.15;;;16.80;99.90;;;;;;5003276;28;20437;-77
2022/08/11 00:36:13;;;;;;;;;;;16.70;99.90;;;;;;5002807;28;20104;-73
2022/08/11 00:38:42;;;;;;;3.25;3.00;;;16.70;99.90;;;;;;4997387;28;19929;-71
2022/08/11 00:41:19;;;;;;;2.97;2.50;;;16.70;99.90;;;;;;4989053;28;20139;-71
2022/08/11 00:43:58;;;;;;;3.63;3.08;;;16.70;99.90;;;;;;4999723;28;20539;-68
2022/08/11 00:46:25;;;;;;;5.82;3.90;;;16.70;99.90;;;;;;4999729;28;20046;-71
2022/08/11 00:49:35;;;;;;;3.40;2.80;;;16.70;99.90;;;;;;4997577;28;20399;-67
2022/08/11 00:52:20;;;;;;;3.38;3.08;;;16.70;99.90;;;;;;4986981;28;20145;-74
2022/08/11 00:55:12;;;;;;;2.83;2.63;;;16.70;99.90;;;;;;4997484;28;20041;-67
2022/08/11 00:58:01;;;;;;;3.03;2.72;;;16.70;99.90;;;;;;4976436;28;20104;-72
2022/08/11 01:00:33;;;;;;;3.70;3.25;;;16.70;99.90;;;;;;4978693;28;20054;-71
2022/08/11 01:03:17;;;;;;;3.90;3.40;;;16.70;99.90;;;;;;4976446;28;20100;-73
2022/08/11 01:06:02;;;;;;;4.95;3.60;;;16.80;99.90;;;;;;4977071;28;21379;-71
2022/08/11 01:08:42;;;;;;;5.60;4.45;;;16.90;99.90;;;;;;4977225;28;21495;-71
2022/08/11 01:11:28;;;;;;;5.53;3.25;;;16.90;99.90;;;;;;4997914;28;20478;-72
2022/08/11 01:14:20;;;;;;;3.83;3.28;;;17.00;99.90;;;;;;4996994;28;20105;-72
2022/08/11 01:17:12;;;;;;;6.70;3.83;;;17.00;99.90;;;;;;4998974;28;20057;-68
2022/08/11 01:20:01;;;;;;;3.42;3.13;;;17.20;99.90;;;;;;4999849;28;20144;-68
2022/08/11 01:23:13;;;;;;;3.88;3.58;;;17.20;99.90;;;;;;5003432;28;20050;-70
2022/08/11 01:26:41;;;;;;;5.47;3.72;;;17.20;99.90;;;;;;4998928;28;20054;-72
2022/08/11 01:29:33;;;;;;;2.83;2.63;;;17.20;99.90;;;;;;4963602;28;20799;-70
2022/08/11 01:32:21;;;;;;;3.95;3.35;;;17.20;99.90;;;;;;5002469;28;20049;-72
2022/08/11 01:35:12;;;;;;;3.67;3.40;;;17.20;99.90;;;;;;4993772;28;20049;-69
2022/08/11 01:37:48;;;;;;;4.10;3.78;;;17.20;99.90;;;;;;4986615;28;20049;-72
2022/08/11 01:40:42;;;;;;;4.05;3.75;;;17.20;99.90;;;;;;5001923;28;20058;-75
2022/08/11 01:46:44;;;;;;;3.40;2.85;;;17.20;99.90;;;;;;5001846;28;20046;-68
2022/08/11 01:49:23;;;;;;;4.43;3.63;;;17.10;99.90;;;;;;4999590;28;20049;-73
2022/08/11 01:52:59;;;;;;;3.28;2.97;;;17.10;99.90;;;;;;5003156;28;20050;-69
2022/08/11 01:55:31;;;;;;;4.47;4.07;;;17.10;99.90;;;;;;4971951;28;20073;-72
2022/08/11 01:58:07;;;;;;;4.28;3.50;;;17.20;99.90;;;;;;4988328;28;20088;-69
2022/08/11 02:00:51;;;;;;;4.97;4.20;;;17.10;99.90;;;;;;5008847;28;20148;-76
2022/08/11 02:03:43;;;;;;;5.03;4.65;;;17.10;99.90;;;;;;4999772;28;20105;-72
2022/08/11 02:09:30;;;;;;;24.80;3.97;;;17.10;99.90;;;;;;5002316;28;20195;-71
2022/08/11 02:12:29;;;;;;;3.70;3.42;;;17.00;99.90;;;;;;5000623;28;20058;-72
2022/08/11 02:15:19;;;;;;;3.78;3.47;;;16.90;99.90;;;;;;5002430;28;20064;-70
2022/08/11 02:17:49;;;;;;;4.90;4.40;;;16.90;99.90;;;;;;4999904;28;20157;-69
2022/08/11 02:23:38;;;;;;;4.00;2.88;;;16.80;99.90;;;;;;5004317;28;20398;-70
2022/08/11 02:26:47;;;;;;;4.68;3.47;;;16.70;99.90;;;;;;4979505;28;20101;-67
2022/08/11 02:29:32;;;;;;;3.58;3.30;;;16.70;99.90;;;;;;5001421;28;20058;-72
2022/08/11 02:35:49;;;;;;;4.70;2.83;;;16.60;99.90;;;;;;4990416;28;20185;-71
2022/08/11 02:38:29;;;;;;;3.45;3.20;;;16.50;99.90;;;;;;5000055;28;20050;-68
2022/08/11 02:42:21;;;;;;;3.05;2.85;;;16.50;99.90;;;;;;5001069;28;20483;-72
2022/08/11 02:44:27;;;;;;;3.95;3.45;;;16.50;99.90;;;;;;4980157;28;20066;-70
2022/08/11 02:47:18;;;;;;;4.00;3.67;;;16.40;99.90;;;;;;5002899;28;20054;-73
2022/08/11 02:49:55;;;;;;;3.92;3.42;;;16.30;99.90;;;;;;4995582;28;20133;-67
2022/08/11 02:53:20;;;;;;;4.40;4.10;;;16.30;99.90;;;;;;4981124;28;20050;-71
2022/08/11 02:56:07;;;;;;;3.17;2.97;;;16.20;99.90;;;;;;4979680;28;20050;-70
2022/08/11 02:59:48;;;;;;;5.75;3.92;;;16.20;99.90;;;;;;5001804;28;20084;-73
2022/08/11 03:01:52;;;;;;;4.33;3.33;;;16.20;99.90;;;;;;4974833;28;20125;-70
2022/08/11 03:04:48;;;;;;;5.05;4.22;;;16.10;99.90;;;;;;4981433;28;21094;-71
2022/08/11 03:07:24;;;;;;;2.97;2.78;;;16.10;99.90;;;;;;4979600;28;20050;-72
2022/08/11 03:10:23;;;;;;;4.28;3.88;;;16.10;99.90;;;;;;4988764;28;20167;-68
2022/08/11 03:19:31;;;;;;;3.33;3.03;;;16.10;99.90;;;;;;4995837;28;20046;-69
2022/08/11 03:22:14;;;;;;;3.72;3.42;;;16.00;99.90;;;;;;4980604;28;20547;-71
2022/08/11 03:25:11;;;;;;;5.72;4.45;;;16.00;99.90;;;;;;5001587;28;20365;-69
2022/08/11 03:27:58;;;;;;;4.25;3.85;;;16.10;99.90;;;;;;5005799;28;20357;-68
2022/08/11 03:30:53;;;;;;;3.40;3.10;;;16.00;99.90;;;;;;5004642;28;20515;-68
2022/08/11 03:36:33;;;;;;;3.80;3.50;;;16.10;99.90;;;;;;5000754;28;20085;-73
2022/08/11 03:40:03;;;;;;;4.15;3.75;;;16.20;99.90;;;;;;4999332;28;20179;-67
2022/08/11 03:42:52;;;;;;;3.95;3.53;;;16.20;99.90;;;;;;5000623;28;20124;-71
2022/08/11 03:45:36;;;;;;;4.75;3.75;;;16.20;99.90;;;;;;4991939;28;20096;-72
2022/08/11 03:48:18;;;;;;;4.13;3.83;;;16.30;99.90;;;;;;4996882;28;20054;-71
2022/08/11 03:50:56;;;;;;;3.88;3.47;;;16.40;99.90;;;;;;4999756;28;20464;-70
2022/08/11 03:53:46;;;;;;;3.85;3.47;;;16.40;99.90;;;;;;4996524;28;20074;-68
2022/08/11 03:56:50;;;;;;;5.13;3.50;;;16.40;99.90;;;;;;4991477;28;20050;-72
2022/08/11 04:00:01;;;;;;;4.32;3.40;;;16.50;99.90;;;;;;4978143;28;20120;-68
2022/08/11 04:02:55;;;;;;;3.38;3.08;;;16.60;99.90;;;;;;4992611;28;20064;-72
2022/08/11 04:06:01;;;;;;;4.90;4.35;;;16.70;99.90;;;;;;4996240;28;20046;-68
2022/08/11 04:09:03;;;;;;;3.67;3.35;;;16.70;99.90;;;;;;4999667;28;20048;-68
2022/08/11 04:11:57;;;;;;;5.00;4.18;;;16.80;99.90;;;;;;4997253;28;21404;-68
2022/08/11 04:17:37;;;;;;;3.20;3.00;;;16.80;99.90;;;;;;4996807;28;20472;-73
2022/08/11 04:20:13;;;;;;;3.78;3.45;;;16.90;99.90;;;;;;4998206;28;20250;-69
2022/08/11 04:23:04;;;;;;;3.42;3.13;;;16.90;99.90;;;;;;4999780;28;20074;-68
2022/08/11 04:26:07;;;;;;;4.43;3.25;;;16.90;99.90;;;;;;4998488;28;20104;-70
2022/08/11 04:29:08;;;;;;;3.60;3.30;;;17.00;99.90;;;;;;4999445;28;20049;-75
2022/08/11 04:31:40;;;;;;;3.25;2.95;;;17.10;99.90;;;;;;4983282;28;20045;-71
2022/08/11 04:34:27;;;;;;;3.63;3.25;;;17.20;99.90;;;;;;4999869;28;20060;-67
2022/08/11 04:40:05;;;;;;;4.00;2.92;;;17.30;99.90;;;;;;4998605;28;20054;-71
2022/08/11 04:46:22;;;;;;;6.80;2.83;;;17.50;99.90;;;;;;4998481;28;20049;-71
2022/08/11 05:01:39;;;;;;;4.10;3.10;;;18.00;99.90;;;;;;4999613;28;20436;-75
2022/08/11 05:07:59;;;;;;;3.40;2.75;;;18.20;99.90;;;;;;4995619;28;20073;-68
2022/08/11 05:10:54;;;;;;;3.17;2.67;;;18.20;99.90;;;;;;4997333;28;20479;-69
2022/08/11 05:34:52;;;;;;;4.32;2.40;;;18.60;99.90;;;;;;4998677;28;20085;-69
2022/08/11 05:37:33;;;;;;;3.40;3.10;;;18.60;99.90;;;;;;4994264;28;20053;-76
2022/08/11 05:57:36;;;;;;;2.30;2.20;;;19.00;99.90;;;;;;4972344;28;20065;-67
2022/08/11 06:00:18;;;;;;;3.42;2.58;;;19.00;99.90;;;;;;4977736;28;20654;-68
2022/08/11 06:02:55;;;;;;;6.05;2.63;;;19.00;99.90;;;;;;4989728;28;20049;-69
2022/08/11 06:05:34;;;;;;;2.67;2.42;;;19.10;99.90;;;;;;4997726;28;20052;-71
2022/08/11 06:08:12;;;;;;;3.17;2.53;;;19.10;99.90;;;;;;5000186;28;20053;-69
2022/08/11 06:10:41;;;;;;;2.13;1.95;;;19.10;99.90;;;;;;4998692;28;20081;-72
2022/08/11 06:13:09;;;;;;;5.82;2.35;;;19.10;99.90;;;;;;4995302;28;20089;-72
2022/08/11 06:15:45;;;;;;;5.43;2.13;;;19.10;99.90;;;;;;4999124;28;20836;-69
2022/08/11 06:18:14;;;;;;;2.40;2.20;;;19.20;99.90;;;;;;4999658;28;20141;-67
2022/08/11 06:20:53;;;;;;;4.45;2.95;;;19.20;99.90;;;;;;4988329;28;20209;-69
2022/08/11 06:23:22;;;;;;;4.32;2.45;;;19.20;99.90;;;;;;5001995;28;20053;-70
2022/08/11 06:25:51;;;;;;;4.18;2.80;;;19.20;99.90;;;;;;5003571;28;20096;-71
2022/08/11 06:28:31;;;;;;;2.03;1.85;;;19.30;99.90;;;;;;4995770;28;21424;-68
2022/08/11 06:30:58;;;;;;;3.08;1.63;;;19.40;99.90;;;;;;4999343;28;20159;-71
2022/08/11 06:33:34;;;;;;;3.35;1.67;;;19.40;99.90;;;;;;4997437;28;20581;-70
2022/08/11 06:36:14;;;;;;;4.65;1.42;;;19.40;99.90;;;;;;4990084;28;20166;-71
2022/08/11 06:39:11;;;;;;;2.92;1.73;;;19.50;99.90;;;;;;4997794;28;20081;-68
2022/08/11 06:41:47;;;;;;;2.72;1.33;;;19.60;99.90;;;;;;4995599;28;20053;-70
2022/08/11 06:44:19;;;;;;;2.92;1.92;;;19.70;99.90;;;;;;4994439;28;20221;-72
2022/08/11 06:46:53;;;;;;;1.60;1.50;;;19.80;99.90;;;;;;4997914;28;20078;-73
2022/08/11 06:52:13;;;;;;;2.92;1.30;;;20.00;99.90;;;;;;4997244;28;20100;-73
2022/08/11 06:55:07;;;;;;;5.22;3.22;;;20.00;99.90;;;;;;4997578;28;21365;-68
2022/08/11 07:00:41;;;;;;;3.55;1.20;;;20.10;99.90;;;;;;4995418;28;20774;-68
2022/08/11 07:03:12;;;;;;;2.65;1.10;;;20.20;99.90;;;;;;4994158;28;20038;-70
2022/08/11 07:05:53;;;;;;;1.77;1.58;;;20.20;99.90;;;;;;4996292;28;20555;-70
2022/08/11 07:17:30;;;;;;;1.58;1.10;;;20.50;99.90;;;;;;4972044;28;20350;-72
2022/08/11 07:31:34;;;;;;;1.92;1.23;;;20.70;99.90;;;;;;4991924;28;20060;-71
2022/08/11 07:34:19;;;;;;;0.82;0.65;;;20.80;99.90;;;;;;4992061;28;20108;-74
2022/08/11 07:36:55;;;;;;;0.68;0.65;;;20.90;99.90;;;;;;4994742;28;20679;-73
2022/08/11 07:39:35;;;;;;;3.05;1.10;;;21.00;99.90;;;;;;4990347;28;20050;-72
2022/08/11 07:42:12;;;;;;;2.67;1.33;;;21.10;99.90;;;;;;4994119;28;20444;-73
2022/08/11 07:53:02;;;;;;;1.73;1.63;;;21.10;99.90;;;;;;4994810;28;20138;-69
2022/08/11 07:55:30;;;;;;;1.70;1.38;;;21.00;99.90;;;;;;4993287;28;20053;-73
2022/08/11 08:18:07;;;;;;;1.77;1.38;;;20.90;99.90;;;;;;4996745;28;20170;-71
2022/08/11 08:20:55;;;;;;;3.55;1.33;;;20.90;99.90;;;;;;4996372;28;20042;-70
2022/08/11 08:23:32;;;;;;;3.00;1.80;;;21.00;99.90;;;;;;4994296;28;20090;-73
2022/08/11 08:26:03;;;;;;;2.95;1.52;;;21.00;99.90;;;;;;4995048;28;20499;-70
2022/08/11 08:28:31;;;;;;;;;;;21.10;99.90;;;;;;4996819;28;20208;-70
2022/08/11 08:30:59;;;;;;;2.30;1.55;;;21.10;99.90;;;;;;4996081;28;19925;-75
2022/08/11 08:33:29;;;;;;;2.75;1.92;;;21.10;99.90;;;;;;4994576;28;20077;-73
2022/08/11 08:36:10;;;;;;;4.10;1.65;;;21.10;99.90;;;;;;4991442;28;20155;-69
2022/08/11 08:38:56;;;;;;;2.95;1.60;;;21.10;99.90;;;;;;4987714;28;20100;-70
2022/08/11 08:41:28;;;;;;;1.95;1.52;;;21.20;99.90;;;;;;4994516;28;20050;-70
2022/08/11 08:44:01;;;;;;;2.33;1.73;;;21.20;99.90;;;;;;4988220;28;20077;-74
2022/08/11 08:46:53;;;;;;;24.27;2.55;;;21.30;99.90;;;;;;4975091;28;20513;-70
2022/08/11 08:49:34;;;;;;;1.50;1.40;;;21.30;99.90;;;;;;4973300;28;20145;-70
2022/08/11 08:52:11;;;;;;;2.40;1.35;;;21.30;99.90;;;;;;4973179;28;20054;-76
2022/08/11 08:55:03;;;;;;;4.35;1.42;;;21.20;99.90;;;;;;4990946;28;20128;-70
2022/08/11 08:57:33;;;;;;;2.55;1.58;;;21.10;99.90;;;;;;4979467;28;20107;-68
2022/08/11 09:00:06;;;;;;;2.55;1.92;;;21.00;99.90;;;;;;4999841;28;20644;-71
2022/08/11 09:02:38;;;;;;;2.83;1.35;;;21.10;99.90;;;;;;4994946;28;20056;-70
2022/08/11 09:05:08;;;;;;;1.35;1.23;;;21.10;99.90;;;;;;4993046;28;20113;-69
2022/08/11 09:07:38;;;;;;;4.15;1.50;;;21.10;99.90;;;;;;4990998;28;20050;-72
2022/08/11 09:10:10;;;;;;;3.90;1.65;;;21.20;99.90;;;;;;4994569;28;20053;-68
2022/08/11 09:12:40;;;;;;;1.73;1.63;;;21.30;99.90;;;;;;4994019;28;20143;-68
2022/08/11 09:15:10;;;;;;;2.85;1.83;;;21.40;99.90;;;;;;4993231;28;20140;-72
2022/08/11 09:17:52;;;;;;;1.70;1.60;;;21.40;99.90;;;;;;4995145;28;20084;-70
2022/08/11 09:20:25;;;;;;;3.03;1.30;;;21.50;99.90;;;;;;4995318;28;20137;-68
2022/08/11 09:28:57;;;;;;;1.98;1.52;;;21.60;99.90;;;;;;4993224;28;20053;-70
2022/08/11 09:31:25;;;;;;;2.92;1.92;;;21.60;99.90;;;;;;4992921;28;20045;-69
2022/08/11 09:33:54;;;;;;;3.28;2.00;;;21.70;99.90;;;;;;4995162;28;20061;-73
2022/08/11 09:41:54;;;;;;;3.38;1.50;;;22.00;99.90;;;;;;4996409;28;20045;-69
2022/08/11 09:44:49;;;;;;;1.45;1.08;;;22.10;99.90;;;;;;4995606;28;20371;-70
2022/08/11 09:47:26;;;;;;;2.58;1.63;;;22.10;99.90;;;;;;4996016;28;20081;-72
2022/08/11 09:49:59;;;;;;;2.67;1.80;;;22.10;99.90;;;;;;4996339;28;20232;-68
2022/08/11 09:52:36;;;;;;;4.15;1.60;;;22.20;99.90;;;;;;4998118;28;20090;-70
2022/08/11 09:55:09;;;;;;;1.70;1.60;;;22.10;99.90;;;;;;4992153;28;20056;-71
2022/08/11 10:00:38;;;;;;;2.17;1.98;;;22.30;99.90;;;;;;5006156;28;20153;-75
2022/08/11 10:03:21;;;;;;;5.05;1.98;;;22.40;99.90;;;;;;4981426;28;20112;-72
2022/08/11 10:08:59;;;;;;;1.67;1.58;;;22.50;99.90;;;;;;4995852;28;20045;-69
2022/08/11 10:11:27;;;;;;;2.05;1.75;;;22.40;99.90;;;;;;4978383;28;20097;-71
2022/08/11 10:17:05;;;;;;;1.42;1.33;;;22.50;99.90;;;;;;4995185;28;20437;-68
2022/08/11 10:19:37;;;;;;;1.38;1.27;;;22.50;99.90;;;;;;4998574;28;20111;-66
2022/08/11 10:27:57;;;;;;;3.35;1.88;;;22.60;99.90;;;;;;4992950;28;20050;-66
2022/08/11 10:36:31;;;;;;;6.47;1.38;;;22.80;99.90;;;;;;4998376;28;20038;-69
2022/08/11 10:39:01;;;;;;;3.05;2.00;;;22.80;99.90;;;;;;4993597;28;20069;-68
2022/08/11 10:44:43;;;;;;;2.45;1.65;;;22.90;99.90;;;;;;4983734;28;20555;-73
2022/08/11 11:01:11;;;;;;;1.55;1.27;;;23.60;99.90;;;;;;4997416;28;20049;-69
2022/08/11 11:03:38;;;;;;;2.53;1.45;;;23.60;99.90;;;;;;4997064;28;20567;-70
2022/08/11 11:06:16;;;;;;;1.92;1.17;;;23.80;99.90;;;;;;5000169;28;20214;-68
2022/08/11 11:09:14;;;;;;;1.95;1.77;;;24.00;99.90;;;;;;5000862;28;20042;-68
2022/08/11 11:20:23;;;;;;;2.97;1.42;;;24.60;99.90;;;;;;4999084;28;20053;-69
2022/08/11 11:23:32;;;;;;;1.92;1.40;;;24.40;99.90;;;;;;4998359;28;20163;-71
2022/08/11 11:26:49;;;;;;;2.92;1.58;;;24.40;99.90;;;;;;4998568;28;20417;-72
2022/08/11 11:29:34;;;;;;;4.03;1.67;;;24.50;99.90;;;;;;4990089;28;20045;-77
2022/08/11 11:32:23;;;;;;;1.45;1.35;;;24.60;99.90;;;;;;4987743;28;20492;-71
2022/08/11 11:34:58;;;;;;;2.95;2.05;;;24.50;99.90;;;;;;4993586;28;20061;-68
2022/08/11 11:37:25;;;;;;;2.53;1.88;;;24.60;99.90;;;;;;4995464;28;25077;-68
2022/08/11 11:39:54;;;;;;;2.85;1.50;;;24.60;99.90;;;;;;4997202;28;20057;-70
2022/08/11 11:42:21;;;;;;;1.70;1.52;;;24.60;99.90;;;;;;4994682;28;21026;-67
2022/08/11 11:44:49;;;;;;;3.17;1.27;;;24.60;99.90;;;;;;4992053;28;20057;-72
2022/08/11 11:47:22;;;;;;;1.25;1.15;;;24.60;99.90;;;;;;4987219;28;20403;-74
2022/08/11 11:49:49;;;;;;;1.27;1.15;;;24.60;99.90;;;;;;4985630;28;20170;-72
2022/08/11 11:52:19;;;;;;;1.48;1.38;;;24.80;99.90;;;;;;4968488;28;20081;-67
2022/08/11 11:54:49;;;;;;;1.20;1.10;;;24.80;99.90;;;;;;4970337;28;20058;-67
2022/08/11 12:03:01;;;;;;;5.22;1.17;;;25.10;99.90;;;;;;4970344;28;20069;-69
2022/08/11 12:05:32;;;;;;;2.05;1.10;;;25.20;99.90;;;;;;4974711;28;20093;-73
2022/08/11 12:08:13;;;;;;;2.70;1.42;;;25.20;99.90;;;;;;4993187;28;20054;-71
2022/08/11 12:10:43;;;;;;;1.52;1.20;;;25.40;99.90;;;;;;4993718;28;20049;-69
2022/08/11 12:16:02;;;;;;;2.03;1.20;;;25.60;99.90;;;;;;4994262;28;20657;-68
2022/08/11 12:18:55;;;;;;;1.85;1.75;;;25.60;99.90;;;;;;4992305;28;20042;-68
2022/08/11 12:21:24;;;;;;;1.17;1.08;;;25.40;99.90;;;;;;4993418;28;20053;-70
2022/08/11 12:29:36;;;;;;;2.78;1.55;;;25.60;99.90;;;;;;4979480;28;20870;-68
2022/08/11 12:32:07;;;;;;;2.70;1.23;;;25.60;99.90;;;;;;4990616;28;20077;-73
2022/08/11 12:34:35;;;;;;;1.30;1.20;;;25.60;99.90;;;;;;4989444;28;20042;-72
2022/08/11 12:37:11;;;;;;;3.05;1.02;;;25.60;99.90;;;;;;4997063;28;21316;-70
2022/08/11 12:46:30;;;;;;;2.10;1.20;;;25.80;99.90;;;;;;4975225;28;20124;-72
2022/08/11 12:51:57;;;;;;;2.15;2.03;;;25.80;99.90;;;;;;4979540;28;20053;-72
2022/08/11 12:54:56;;;;;;;3.65;1.48;;;25.90;99.90;;;;;;4998054;28;20053;-71
2022/08/11 13:05:42;;;;;;;2.25;1.20;;;26.10;99.90;;;;;;4996250;28;20080;-76
2022/08/11 13:08:15;;;;;;;2.92;1.52;;;26.10;99.90;;;;;;4982422;28;20058;-70
2022/08/11 13:13:30;;;;;;;2.42;1.75;;;26.10;99.60;;;;;;4975034;28;20540;-74
2022/08/11 13:16:19;;;;;;;2.42;1.42;;;26.40;99.40;;;;;;4992149;28;20141;-69
2022/08/11 13:18:47;;;;;;;3.63;1.60;;;26.40;99.90;;;;;;5000067;28;20050;-71
2022/08/11 13:21:15;;;;;;;1.27;1.17;;;26.40;99.60;;;;;;4995171;28;20137;-69
2022/08/11 13:23:49;;;;;;;1.58;1.48;;;26.50;99.60;;;;;;4996309;28;20054;-73
2022/08/11 13:26:39;;;;;;;3.63;1.73;;;26.70;99.30;;;;;;4999066;28;20088;-69
2022/08/11 13:29:25;;;;;;;3.33;1.33;;;26.70;99.30;;;;;;4997708;28;20222;-70
2022/08/11 13:31:55;;;;;;;1.90;1.30;;;26.70;98.80;;;;;;4997661;28;20042;-71
2022/08/11 13:34:25;;;;;;;1.73;1.08;;;26.80;98.90;;;;;;4987973;28;20590;-70
2022/08/11 13:36:55;;;;;;;2.05;1.83;;;26.80;99.30;;;;;;4993036;28;20058;-72
2022/08/11 13:39:25;;;;;;;2.72;1.52;;;27.00;97.80;;;;;;4994455;28;21437;-69
2022/08/11 13:41:55;;;;;;;2.92;2.30;;;26.90;98.20;;;;;;4997771;28;20050;-72
2022/08/11 13:44:28;;;;;;;3.50;1.30;;;26.80;97.70;;;;;;4998108;28;20057;-71
2022/08/11 13:46:59;;;;;;;4.00;1.58;;;26.90;98.20;;;;;;4998093;28;20046;-75
2022/08/11 13:49:29;;;;;;;1.40;1.25;;;26.90;98.60;;;;;;4996035;28;20143;-72
2022/08/11 13:51:57;;;;;;;1.60;1.50;;;27.00;97.90;;;;;;4997645;28;20137;-69
2022/08/11 13:54:28;;;;;;;1.88;1.10;;;27.10;99.20;;;;;;4995068;28;20088;-74
2022/08/11 13:56:59;;;;;;;1.52;1.27;;;27.30;99.90;;;;;;4998392;28;20066;-67
2022/08/11 13:59:27;;;;;;;1.48;1.20;;;27.20;99.40;;;;;;4996367;28;20168;-69
2022/08/11 14:02:09;;;;;;;2.05;1.30;;;27.20;99.40;;;;;;4997051;28;20061;-74
2022/08/11 14:05:00;;;;;;;2.67;1.45;;;27.20;99.00;;;;;;4997239;28;20914;-72
2022/08/11 14:07:38;;;;;;;1.92;1.15;;;27.20;98.60;;;;;;4995605;28;20046;-68
2022/08/11 14:10:07;;;;;;;14.48;2.78;;;27.20;99.00;;;;;;4995561;28;20098;-69
2022/08/11 14:15:33;;;;;;;1.05;0.95;;;27.10;99.00;;;;;;4994729;28;20050;-69
2022/08/11 14:18:05;;;;;;;2.58;1.17;;;27.20;99.00;;;;;;4994614;28;20144;-71
2022/08/11 14:23:36;;;;;;;2.25;2.05;;;27.50;98.60;;;;;;4993884;28;20077;-70
2022/08/11 14:26:22;;;;;;;3.88;1.10;;;27.70;98.40;;;;;;4993295;28;20105;-71
2022/08/11 14:28:53;;;;;;;1.63;1.42;;;27.80;98.10;;;;;;4997286;28;20096;-70
2022/08/11 14:31:24;;;;;;;2.63;1.55;;;27.60;97.90;;;;;;4993492;28;20107;-71
2022/08/11 14:33:54;;;;;;;1.55;1.20;;;27.70;97.80;;;;;;4995818;28;20053;-72
2022/08/11 14:36:44;;;;;;;1.20;1.10;;;27.60;97.90;;;;;;4995269;28;20045;-71
2022/08/11 14:39:17;;;;;;;1.95;1.85;;;27.70;98.20;;;;;;4993291;28;20499;-68
2022/08/11 14:47:33;;;;;;;1.35;1.25;;;27.20;98.00;;;;;;4993177;28;20719;-71
2022/08/11 14:50:02;;;;;;;4.38;1.60;;;27.30;97.90;;;;;;4995501;28;20058;-69
2022/08/11 14:52:54;;;;;;;2.58;1.25;;;27.30;98.00;;;;;;4995172;28;20105;-69
2022/08/11 14:58:12;;;;;;;2.60;1.65;;;27.50;97.80;;;;;;4993213;28;20093;-72
2022/08/11 15:00:41;;;;;;;1.92;1.48;;;27.60;98.10;;;;;;4993936;28;20054;-71
2022/08/11 15:03:12;;;;;;;2.80;1.65;;;27.70;98.10;;;;;;4993107;28;20184;-73
2022/08/11 15:05:52;;;;;;;2.38;1.10;;;27.80;97.70;;;;;;4995406;28;20053;-69
2022/08/11 15:09:13;;;;;;;1.52;1.35;;;27.90;97.40;;;;;;4994891;28;20117;-68
2022/08/11 15:14:06;;;;;;;3.83;1.42;;;27.60;97.30;;;;;;4993645;28;20285;-73
2022/08/11 15:19:23;;;;;;;1.17;0.90;;;27.50;98.30;;;;;;4994760;28;20062;-70
2022/08/11 15:24:36;;;;;;;0.98;0.80;;;27.30;97.80;;;;;;4996277;28;20092;-70
2022/08/11 15:38:41;;;;;;;1.63;1.10;;;27.50;97.80;;;;;;4994885;28;20046;-71
2022/08/11 15:46:49;;;;;;;3.05;0.93;;;27.60;97.60;;;;;;4993591;28;20061;-67
2022/08/11 15:49:42;;;;;;;2.78;1.13;;;27.80;97.10;;;;;;4993869;28;20061;-69
2022/08/11 15:52:33;;;;;;;1.30;1.20;;;28.10;97.20;;;;;;4994881;28;20049;-70
2022/08/11 15:55:05;;;;;;;3.20;2.95;;;28.10;96.80;;;;;;4996598;28;20076;-67
2022/08/11 16:06:18;;;;;;;2.85;1.00;;;28.10;96.90;;;;;;4998146;28;20175;-68
2022/08/11 16:08:50;;;;;;;1.67;1.00;;;28.00;96.40;;;;;;4995231;28;20053;-68
2022/08/11 16:11:18;;;;;;;0.80;0.77;;;27.80;96.30;;;;;;4993491;28;20144;-71
2022/08/11 16:16:14;;;;;;;1.88;1.48;;;27.70;96.40;;;;;;4995366;28;20140;-69
2022/08/11 16:18:50;;;;;;;1.52;0.90;;;27.40;96.40;;;;;;4992327;28;20049;-72
2022/08/11 16:21:22;;;;;;;3.55;1.23;;;27.50;96.60;;;;;;4993202;28;20381;-69
2022/08/11 16:24:05;;;;;;;1.17;0.85;;;27.40;96.70;;;;;;4994077;28;20325;-71
2022/08/11 16:26:35;;;;;;;1.83;1.30;;;27.60;96.30;;;;;;4995049;28;20741;-69
2022/08/11 16:29:24;;;;;;;3.05;1.00;;;27.80;96.30;;;;;;4993567;28;20528;-73
2022/08/11 16:40:19;;;;;;;1.30;0.80;;;27.60;96.00;;;;;;4994948;28;20053;-70
2022/08/11 16:48:29;;;;;;;1.00;0.85;;;27.70;96.20;;;;;;4997301;28;20576;-71
2022/08/11 16:51:09;;;;;;;4.43;2.15;;;27.60;95.70;;;;;;4992231;28;20584;-74
2022/08/11 16:53:38;;;;;;;2.17;0.93;;;27.70;95.80;;;;;;4992129;28;20104;-68
2022/08/11 16:56:44;;;;;;;2.60;1.23;;;27.80;95.80;;;;;;4995065;28;20164;-70
2022/08/11 16:59:30;;;;;;;1.95;1.20;;;27.60;95.70;;;;;;4993992;28;20111;-67
2022/08/11 17:02:05;;;;;;;1.80;1.45;;;27.60;95.80;;;;;;4995287;28;20077;-70
2022/08/11 17:13:42;;;;;;;1.40;1.27;;;27.50;96.10;;;;;;4993065;28;20045;-69
2022/08/11 17:16:12;;;;;;;1.83;1.10;;;27.60;95.90;;;;;;4994991;28;20137;-72
2022/08/11 17:18:48;;;;;;;0.90;0.80;;;27.80;95.90;;;;;;4993801;28;20148;-74
2022/08/11 17:21:28;;;;;;;4.68;2.10;;;27.80;95.80;;;;;;4990302;28;20053;-69
2022/08/11 17:24:02;;;;;;;1.88;1.13;;;27.90;95.60;;;;;;4994393;28;20619;-71
2022/08/11 17:26:57;;;;;;;7.97;3.42;;;27.60;95.80;;;;;;4994369;28;20057;-68
2022/08/11 17:29:56;;;;;;;2.15;0.95;;;27.30;96.00;;;;;;4993404;28;20046;-72
2022/08/11 17:35:31;;;;;;;2.40;1.23;;;27.40;95.90;;;;;;4992368;28;20127;-68
2022/08/11 17:38:14;;;;;;;1.40;1.00;;;27.10;96.00;;;;;;4990203;28;20378;-73
2022/08/11 17:49:07;;;;;;;1.95;1.02;;;25.30;97.30;;;;;;4992763;28;20598;-67
2022/08/11 17:59:58;;;;;;;2.42;2.22;;;23.70;99.50;;;;;;4995098;28;20157;-70
2022/08/11 18:05:28;;;;;;;2.85;1.60;;;23.20;99.90;;;;;;4996646;28;20383;-68
